Aviation Digital Data Service (ADDS)

Output produced by METARs form (1753 UTC 24 March 2017)
found at http://www.aviationweather.gov/adds/metars/
 
UGKO 241730Z 26005KT 190V280 CAVOK 06/01 Q1024 R25/09//70 NOSIG
TAF UGKO 241700Z 2418/2518 VRB02KT CAVOK TX17/2512Z TN02/2502Z 
     TEMPO 2422/2506 1200 BR BKN012 
     TEMPO 2508/2516 25010KT
       
UGSB 241730Z 10003KT CAVOK 06/04 Q1026 R13/70D NOSIG
TAF UGSB 241700Z 2418/2518 13012KT CAVOK TX12/2511Z TN03/2502Z 
     BECMG 2507/2509 32007KT 
     BECMG 2517/2518 13010KT
       
UGTB 241730Z 11009KT 9999 SCT037CB OVC042 09/03 Q1027 R13R/CLRD70 NOSIG
TAF UGTB 241700Z 2418/2518 14010KT 9999 SCT025CB BKN045 TX13/2512Z TN04/2503Z 
     TEMPO 2500/2506 VRB02KT 1400 BR SCT005 OVC030